Time;durP1;ratioP1;P1;durP2;ratioP2;P2;SDS_P1;SDS_P2;PMS_P1;PMS_P2;Temp;Humidity;BMP_temperature;BMP_pressure;BME280_temperature;BME280_humidity;BME280_pressure;Samples;Min_cycle;Max_cycle;Signal;HPM_P1;HPM_P2
2022/05/23 00:00:12;;;;;;;2.97;2.70;;;19.70;66.20;;;;;;5062090;28;20184;-81
2022/05/23 00:02:38;;;;;;;3.10;2.80;;;19.70;65.80;;;;;;5061016;28;20247;-82
2022/05/23 00:05:07;;;;;;;3.33;2.75;;;19.70;64.50;;;;;;5058457;28;20202;-83
2022/05/23 00:07:36;;;;;;;2.88;2.67;;;19.90;63.80;;;;;;5061417;28;20193;-81
2022/05/23 00:10:04;;;;;;;3.13;2.80;;;20.20;62.50;;;;;;5060332;28;20201;-80
2022/05/23 00:12:30;;;;;;;3.58;2.85;;;20.20;61.60;;;;;;5049401;28;20205;-81
2022/05/23 00:14:55;;;;;;;3.10;2.80;;;19.80;65.00;;;;;;5060243;28;20186;-82
2022/05/23 00:17:22;;;;;;;2.75;2.55;;;19.60;65.80;;;;;;5063173;28;20184;-81
2022/05/23 00:19:48;;;;;;;2.83;2.63;;;19.50;65.20;;;;;;5065032;28;20203;-81
2022/05/23 00:22:15;;;;;;;2.88;2.67;;;19.50;64.10;;;;;;5061200;28;20212;-81
2022/05/23 00:24:41;;;;;;;3.10;2.78;;;19.60;63.70;;;;;;5064784;28;20256;-80
2022/05/23 00:27:10;;;;;;;2.80;2.60;;;19.70;63.70;;;;;;5062326;28;20185;-80
2022/05/23 00:29:36;;;;;;;2.83;2.45;;;19.70;62.70;;;;;;5056628;28;20193;-82
2022/05/23 00:37:56;;;;;;;3.15;2.90;;;19.50;62.70;;;;;;4987336;28;20197;-81
2022/05/23 00:40:24;;;;;;;2.70;2.50;;;19.50;62.30;;;;;;4988361;28;20198;-81
2022/05/23 00:45:34;;;;;;;3.53;2.83;;;19.70;61.80;;;;;;5042048;28;20219;-81
2022/05/23 00:48:00;;;;;;;3.65;2.60;;;19.70;61.80;;;;;;5060834;28;20180;-81
2022/05/23 00:50:26;;;;;;;2.60;2.40;;;19.70;61.60;;;;;;5061328;28;20475;-82
2022/05/23 00:52:56;;;;;;;2.67;2.45;;;19.70;61.50;;;;;;5041124;28;20218;-81
2022/05/23 00:55:33;;;;;;;2.88;2.67;;;19.80;61.50;;;;;;5036103;28;20187;-81
2022/05/23 00:58:05;;;;;;;3.17;2.88;;;20.00;61.00;;;;;;5057216;28;20183;-81
2022/05/23 01:00:32;;;;;;;6.13;2.60;;;20.00;60.40;;;;;;5062790;28;20185;-81
2022/05/23 01:03:04;;;;;;;2.83;2.63;;;20.00;60.40;;;;;;5057600;28;20300;-81
2022/05/23 01:05:32;;;;;;;3.90;2.80;;;19.90;61.00;;;;;;5056164;28;20184;-81
2022/05/23 01:07:58;;;;;;;2.85;2.58;;;19.80;62.50;;;;;;5040273;28;20204;-81
2022/05/23 01:10:24;;;;;;;3.63;2.50;;;19.60;62.10;;;;;;5063788;28;20196;-81
2022/05/23 01:12:50;;;;;;;2.97;2.60;;;19.60;62.30;;;;;;5065877;28;20188;-80
2022/05/23 01:15:20;;;;;;;3.22;2.90;;;19.50;63.00;;;;;;5065757;28;20211;-81
2022/05/23 01:17:46;;;;;;;2.60;2.40;;;19.50;62.60;;;;;;5060319;28;20191;-81
2022/05/23 01:20:12;;;;;;;3.05;2.75;;;19.60;63.20;;;;;;5068259;28;20177;-81
2022/05/23 01:23:09;;;;;;;3.17;2.75;;;19.60;63.50;;;;;;5050855;28;20227;-80
2022/05/23 01:25:39;;;;;;;3.63;2.75;;;19.60;63.30;;;;;;5059956;28;20200;-82
2022/05/23 01:28:05;;;;;;;2.60;2.40;;;19.60;64.10;;;;;;5064116;28;20184;-81
2022/05/23 01:30:34;;;;;;;2.88;2.63;;;19.70;63.60;;;;;;5066854;28;20189;-81
2022/05/23 01:33:01;;;;;;;3.03;2.53;;;19.80;63.40;;;;;;5038683;28;20611;-81
2022/05/23 01:35:27;;;;;;;3.05;2.80;;;19.60;64.10;;;;;;5043231;28;20184;-81
2022/05/23 01:37:53;;;;;;;2.75;2.55;;;19.40;66.00;;;;;;5041800;28;20237;-81
2022/05/23 01:40:22;;;;;;;3.15;2.60;;;19.20;66.60;;;;;;5064894;28;20500;-81
2022/05/23 01:42:48;;;;;;;3.15;2.78;;;19.30;65.80;;;;;;5040651;28;20225;-81
2022/05/23 01:45:20;;;;;;;3.15;2.92;;;19.20;64.20;;;;;;5060256;28;20226;-81
2022/05/23 01:47:46;;;;;;;2.97;2.67;;;19.10;64.70;;;;;;5062430;28;20243;-83
2022/05/23 01:50:12;;;;;;;3.08;2.50;;;19.10;65.40;;;;;;5034677;28;20552;-81
2022/05/23 01:52:41;;;;;;;2.92;2.65;;;19.10;64.40;;;;;;5067420;28;20212;-81
2022/05/23 01:55:07;;;;;;;3.45;2.55;;;19.20;65.00;;;;;;5055888;28;20216;-81
2022/05/23 01:57:34;;;;;;;2.63;2.40;;;19.30;64.50;;;;;;5076125;28;20203;-81
2022/05/23 02:02:47;;;;;;;3.42;2.58;;;19.40;63.60;;;;;;5064550;28;20250;-81
2022/05/23 02:05:15;;;;;;;2.70;2.50;;;19.30;64.80;;;;;;5060942;28;20219;-81
2022/05/23 02:07:40;;;;;;;3.47;2.65;;;19.20;65.40;;;;;;5047622;28;20192;-81
2022/05/23 02:10:07;;;;;;;3.08;2.40;;;19.20;66.10;;;;;;5059846;28;20230;-82
2022/05/23 02:12:33;;;;;;;2.90;2.70;;;19.20;66.30;;;;;;5056176;28;20216;-80
2022/05/23 02:14:58;;;;;;;2.67;2.47;;;19.30;65.80;;;;;;5061850;28;20849;-80
2022/05/23 02:17:24;;;;;;;4.20;2.70;;;19.40;65.70;;;;;;5065497;28;20184;-80
2022/05/23 02:19:50;;;;;;;2.47;2.28;;;19.30;66.20;;;;;;5050480;28;20195;-81
2022/05/23 02:22:16;;;;;;;2.70;2.50;;;19.20;66.50;;;;;;5059463;28;20272;-81
2022/05/23 02:24:41;;;;;;;2.50;2.40;;;19.30;66.30;;;;;;5058427;28;20189;-81
2022/05/23 02:27:07;;;;;;;2.92;2.60;;;19.20;66.40;;;;;;5066330;28;20241;-81
2022/05/23 02:29:34;;;;;;;3.03;2.67;;;19.40;66.30;;;;;;5056364;28;20193;-80
2022/05/23 02:32:00;;;;;;;2.63;2.45;;;19.50;65.50;;;;;;5062073;28;20260;-82
2022/05/23 02:34:26;;;;;;;4.05;2.70;;;19.50;65.60;;;;;;5058075;28;20213;-81
2022/05/23 02:36:51;;;;;;;3.00;2.70;;;19.50;65.30;;;;;;5065596;28;20303;-81
2022/05/23 02:39:17;;;;;;;2.85;2.65;;;19.60;66.50;;;;;;5058600;28;20195;-82
2022/05/23 02:41:43;;;;;;;2.83;2.63;;;19.40;66.20;;;;;;5038516;28;20215;-82
2022/05/23 02:44:09;;;;;;;2.53;2.33;;;19.30;65.90;;;;;;5055898;28;20681;-81
2022/05/23 02:46:38;;;;;;;2.47;2.38;;;19.30;67.20;;;;;;5051543;28;20247;-81
2022/05/23 02:49:06;;;;;;;3.13;2.60;;;19.30;68.50;;;;;;5014604;28;20223;-81
2022/05/23 02:51:32;;;;;;;3.60;2.55;;;19.30;68.10;;;;;;5052984;28;20189;-82
2022/05/23 02:53:58;;;;;;;2.75;2.55;;;19.40;68.00;;;;;;5047215;28;20216;-82
2022/05/23 02:56:24;;;;;;;2.85;2.60;;;19.40;68.60;;;;;;5057554;28;20192;-81
2022/05/23 02:58:49;;;;;;;2.63;2.42;;;19.30;69.20;;;;;;5037808;28;20196;-81
2022/05/23 03:01:15;;;;;;;2.97;2.78;;;19.30;69.60;;;;;;5041311;28;20202;-81
2022/05/23 03:03:41;;;;;;;3.25;2.83;;;19.30;68.60;;;;;;5057202;28;20246;-81
2022/05/23 03:06:08;;;;;;;2.70;2.22;;;19.40;68.10;;;;;;5027595;28;20211;-80
2022/05/23 03:08:35;;;;;;;3.83;2.58;;;19.50;67.10;;;;;;5053097;28;20192;-81
2022/05/23 03:11:02;;;;;;;2.67;2.47;;;19.60;66.90;;;;;;5053729;28;20190;-81
2022/05/23 03:13:28;;;;;;;3.22;2.90;;;19.50;68.00;;;;;;5059504;28;20869;-81
2022/05/23 03:15:54;;;;;;;3.33;2.65;;;19.40;69.60;;;;;;5054546;28;20196;-82
2022/05/23 03:18:21;;;;;;;3.10;2.83;;;19.20;70.10;;;;;;5056633;28;20188;-81
2022/05/23 03:20:47;;;;;;;6.20;3.25;;;18.80;69.70;;;;;;5055097;28;20222;-80
2022/05/23 03:28:43;;;;;;;4.60;3.87;;;18.10;75.90;;;;;;5058921;28;20216;-81
2022/05/23 03:31:09;;;;;;;13.83;5.50;;;18.10;78.50;;;;;;5042902;28;20195;-83
2022/05/23 03:33:35;;;;;;;4.57;3.90;;;18.10;84.90;;;;;;5046699;28;20227;-82
2022/05/23 03:36:01;;;;;;;5.40;3.95;;;17.90;84.20;;;;;;5062105;28;20239;-83
2022/05/23 03:38:27;;;;;;;7.03;4.50;;;18.00;85.30;;;;;;5054920;28;20240;-82
2022/05/23 03:40:53;;;;;;;8.02;3.90;;;18.00;88.00;;;;;;5048625;28;20630;-82
2022/05/23 03:43:18;;;;;;;8.43;3.65;;;18.10;90.00;;;;;;5054097;28;20314;-82
2022/05/23 03:45:44;;;;;;;3.67;3.38;;;18.00;87.60;;;;;;5050513;28;20570;-82
2022/05/23 03:48:10;;;;;;;7.38;3.78;;;18.10;88.00;;;;;;5047718;28;20558;-82
2022/05/23 03:50:36;;;;;;;6.60;3.97;;;17.90;89.50;;;;;;5049489;28;20210;-83
2022/05/23 03:53:05;;;;;;;5.82;3.70;;;18.00;91.00;;;;;;5045849;28;20756;-83
2022/05/23 03:55:31;;;;;;;5.65;3.55;;;18.00;88.10;;;;;;5044909;28;20187;-82
2022/05/23 03:57:56;;;;;;;6.45;4.18;;;18.00;88.30;;;;;;5052741;28;20222;-83
2022/05/23 04:00:23;;;;;;;5.60;3.78;;;18.10;92.00;;;;;;5050326;28;20642;-82
2022/05/23 04:02:49;;;;;;;6.60;4.05;;;18.00;91.10;;;;;;5047865;28;20563;-82
2022/05/23 04:05:17;;;;;;;6.72;4.20;;;17.80;95.80;;;;;;5049997;28;20202;-82
2022/05/23 04:07:43;;;;;;;7.83;4.83;;;17.60;95.90;;;;;;5051693;28;20176;-82
2022/05/23 04:10:14;;;;;;;5.93;4.35;;;17.50;99.20;;;;;;5056881;28;20730;-82
2022/05/23 04:12:41;;;;;;;5.15;4.35;;;17.60;99.70;;;;;;5046825;28;20310;-83
2022/05/23 04:15:07;;;;;;;6.55;4.50;;;17.70;99.10;;;;;;5052527;28;20209;-83
2022/05/23 04:17:34;;;;;;;4.90;4.45;;;17.60;99.60;;;;;;5051764;28;20182;-81
2022/05/23 04:19:59;;;;;;;4.80;4.35;;;17.60;99.90;;;;;;5053338;28;20178;-83
2022/05/23 04:22:25;;;;;;;5.18;4.15;;;17.50;99.90;;;;;;5051108;28;20570;-83
2022/05/23 04:24:51;;;;;;;8.18;4.70;;;17.50;99.00;;;;;;5049907;28;20196;-83
2022/05/23 04:27:17;;;;;;;5.23;4.17;;;17.40;99.40;;;;;;5021733;28;20191;-83
2022/05/23 04:29:42;;;;;;;4.72;4.32;;;17.50;99.90;;;;;;5052543;28;20186;-81
2022/05/23 04:35:12;;;;;;;4.90;4.07;;;17.70;99.50;;;;;;5051672;28;20208;-83
2022/05/23 04:37:51;;;;;;;7.85;4.50;;;17.90;98.40;;;;;;5058784;28;20290;-81
2022/05/23 04:40:21;;;;;;;4.70;4.13;;;17.90;97.30;;;;;;5050671;28;20183;-81
2022/05/23 04:42:47;;;;;;;5.45;4.15;;;17.80;98.30;;;;;;5049355;28;20231;-81
2022/05/23 04:45:13;;;;;;;5.43;4.30;;;17.70;99.70;;;;;;5065394;28;20188;-81
2022/05/23 04:50:24;;;;;;;5.55;4.22;;;17.60;99.90;;;;;;5047915;28;20206;-81
2022/05/23 04:52:50;;;;;;;5.73;4.47;;;17.70;99.90;;;;;;5046756;28;20216;-81
2022/05/23 04:55:17;;;;;;;7.25;4.28;;;17.60;99.90;;;;;;5043817;28;20241;-81
2022/05/23 04:57:43;;;;;;;5.65;4.70;;;17.40;99.90;;;;;;5035475;28;20178;-82
2022/05/23 05:00:12;;;;;;;5.28;4.63;;;17.50;99.90;;;;;;5049345;28;20195;-81
2022/05/23 05:02:38;;;;;;;6.10;3.83;;;17.40;99.90;;;;;;5049175;28;20221;-81
2022/05/23 05:05:06;;;;;;;7.47;4.80;;;17.20;99.90;;;;;;5052461;28;20191;-82
2022/05/23 05:07:31;;;;;;;4.60;4.20;;;17.10;99.90;;;;;;5053858;28;20238;-81
2022/05/23 05:09:57;;;;;;;6.47;4.73;;;17.10;99.90;;;;;;5056758;28;20287;-82
2022/05/23 05:12:23;;;;;;;4.77;4.23;;;17.10;99.90;;;;;;5050606;28;20212;-82
2022/05/23 05:14:49;;;;;;;5.00;4.30;;;17.20;99.90;;;;;;5049507;28;20275;-81
2022/05/23 05:17:14;;;;;;;5.33;4.47;;;17.10;99.90;;;;;;5044951;28;20336;-82
2022/05/23 05:19:40;;;;;;;6.53;5.07;;;17.00;99.90;;;;;;5044984;28;20544;-82
2022/05/23 05:22:06;;;;;;;6.73;4.43;;;17.10;99.90;;;;;;5047833;28;20275;-82
2022/05/23 05:24:32;;;;;;;4.83;4.40;;;17.20;99.90;;;;;;5047597;28;20188;-82
2022/05/23 05:26:59;;;;;;;5.17;4.63;;;17.30;99.90;;;;;;5028563;28;20183;-82
2022/05/23 05:29:25;;;;;;;4.93;4.43;;;17.50;99.90;;;;;;5027018;28;20196;-82
2022/05/23 05:31:59;;;;;;;4.27;3.97;;;17.50;99.90;;;;;;5051121;28;20221;-82
2022/05/23 05:34:48;;;;;;;5.13;4.30;;;17.50;99.90;;;;;;5047738;28;20252;-82
2022/05/23 05:37:19;;;;;;;5.18;4.43;;;17.50;99.90;;;;;;5048330;28;20199;-82
2022/05/23 05:39:47;;;;;;;5.10;4.63;;;17.60;99.90;;;;;;5046005;28;20201;-82
2022/05/23 05:42:19;;;;;;;4.47;3.83;;;17.70;99.90;;;;;;5031367;28;20205;-82
2022/05/23 05:44:52;;;;;;;4.37;3.87;;;17.80;99.70;;;;;;5044034;28;20196;-82
2022/05/23 05:47:20;;;;;;;4.18;3.88;;;17.80;99.00;;;;;;5043529;28;20210;-82
2022/05/23 05:49:52;;;;;;;4.85;4.32;;;18.00;97.60;;;;;;5047084;28;20245;-82
2022/05/23 05:52:21;;;;;;;5.57;3.85;;;18.00;99.90;;;;;;5045729;28;20211;-82
2022/05/23 05:54:47;;;;;;;4.00;3.70;;;18.20;99.90;;;;;;5048374;28;20190;-83
2022/05/23 05:57:14;;;;;;;4.47;4.00;;;18.30;98.70;;;;;;5044977;28;20177;-82
2022/05/23 05:59:43;;;;;;;4.82;4.18;;;18.50;97.60;;;;;;5047462;28;20636;-82
2022/05/23 06:02:08;;;;;;;4.32;3.92;;;18.60;97.00;;;;;;5045524;28;20283;-82
2022/05/23 06:04:35;;;;;;;4.35;3.88;;;18.70;95.20;;;;;;5049589;28;20203;-82
2022/05/23 06:12:31;;;;;;;4.78;3.63;;;18.60;98.00;;;;;;5048952;28;20250;-82
2022/05/23 06:14:57;;;;;;;4.57;4.18;;;18.50;99.90;;;;;;5030389;28;20555;-82
2022/05/23 06:17:23;;;;;;;4.43;4.07;;;18.50;99.90;;;;;;5049218;28;20192;-82
2022/05/23 06:19:49;;;;;;;4.35;3.95;;;18.60;99.90;;;;;;5050859;28;20207;-82
2022/05/23 06:22:17;;;;;;;4.63;4.20;;;18.70;99.90;;;;;;5052539;28;20196;-82
2022/05/23 06:24:44;;;;;;;4.63;4.10;;;18.70;99.90;;;;;;5049843;28;20222;-81
2022/05/23 06:27:11;;;;;;;3.88;3.58;;;18.60;99.90;;;;;;5061533;28;20179;-83
2022/05/23 06:29:38;;;;;;;4.15;3.83;;;18.60;99.90;;;;;;5061522;28;20243;-82
2022/05/23 06:32:05;;;;;;;4.60;4.18;;;18.70;99.90;;;;;;5055062;28;20180;-82
2022/05/23 06:34:31;;;;;;;4.78;4.30;;;18.80;99.90;;;;;;5059224;28;20623;-82
2022/05/23 06:36:59;;;;;;;4.13;3.72;;;19.00;99.90;;;;;;5060772;28;20191;-82
2022/05/23 06:39:29;;;;;;;4.20;3.90;;;19.10;99.90;;;;;;5064376;28;20407;-82
2022/05/23 06:41:55;;;;;;;4.20;3.70;;;19.20;99.90;;;;;;5062233;28;20199;-82
2022/05/23 06:44:24;;;;;;;4.60;3.80;;;19.20;99.90;;;;;;5058624;28;20212;-82
2022/05/23 06:46:50;;;;;;;4.00;3.65;;;19.30;99.90;;;;;;5054173;28;20211;-82
2022/05/23 06:49:15;;;;;;;4.88;4.07;;;19.40;98.70;;;;;;5060060;28;20675;-82
2022/05/23 06:51:43;;;;;;;4.35;3.95;;;19.40;97.00;;;;;;5056521;28;20181;-84
2022/05/23 06:54:09;;;;;;;4.70;3.83;;;19.50;99.90;;;;;;5044843;28;20216;-80
2022/05/23 06:56:35;;;;;;;4.40;3.97;;;19.60;97.80;;;;;;5044405;28;20203;-81
2022/05/23 06:59:01;;;;;;;4.00;3.70;;;19.70;96.20;;;;;;5012581;28;20182;-81
2022/05/23 07:01:26;;;;;;;6.57;4.32;;;19.80;96.70;;;;;;5043454;28;20185;-80
2022/05/23 07:03:52;;;;;;;4.63;4.00;;;19.80;97.60;;;;;;5062435;28;20265;-81
2022/05/23 07:14:31;;;;;;;5.07;4.38;;;19.90;96.00;;;;;;5062648;28;20196;-81
2022/05/23 07:16:59;;;;;;;5.68;5.00;;;20.10;93.90;;;;;;5060895;28;20190;-82
2022/05/23 07:19:26;;;;;;;4.72;4.32;;;20.20;95.90;;;;;;5046941;28;20199;-82
2022/05/23 07:21:51;;;;;;;5.30;4.30;;;20.20;92.70;;;;;;5065250;28;20213;-81
2022/05/23 07:24:17;;;;;;;4.22;3.92;;;20.20;92.80;;;;;;5047786;28;20180;-81
2022/05/23 07:26:43;;;;;;;4.70;4.35;;;20.30;91.00;;;;;;5061885;28;20190;-82
2022/05/23 07:29:09;;;;;;;4.72;4.00;;;20.40;88.60;;;;;;5047499;28;20198;-81
2022/05/23 07:31:35;;;;;;;4.97;4.38;;;20.40;88.50;;;;;;5037384;28;20188;-80
2022/05/23 07:34:02;;;;;;;5.68;4.40;;;20.50;91.40;;;;;;5071426;28;20244;-80
2022/05/23 07:36:27;;;;;;;4.82;4.15;;;20.40;93.50;;;;;;5070386;28;20198;-81
2022/05/23 07:38:53;;;;;;;6.15;5.50;;;20.20;93.20;;;;;;5060577;28;20180;-81
2022/05/23 07:41:19;;;;;;;6.68;4.72;;;20.20;92.80;;;;;;5042426;28;20192;-80
2022/05/23 07:43:47;;;;;;;5.15;4.75;;;20.10;94.00;;;;;;5056642;28;20286;-81
2022/05/23 07:46:14;;;;;;;6.53;5.35;;;20.10;91.20;;;;;;5054056;28;20215;-80
2022/05/23 07:48:40;;;;;;;6.72;4.63;;;20.10;93.00;;;;;;5057194;28;20224;-81
2022/05/23 07:51:07;;;;;;;5.82;4.85;;;20.00;93.80;;;;;;5059073;28;20185;-81
2022/05/23 08:02:01;;;;;;;5.43;4.93;;;19.60;96.30;;;;;;5038947;28;20207;-83
2022/05/23 08:04:27;;;;;;;5.80;4.80;;;19.80;96.40;;;;;;5001163;28;20251;-81
2022/05/23 08:06:53;;;;;;;5.97;5.25;;;20.20;93.40;;;;;;5058884;28;20193;-81
2022/05/23 08:09:20;;;;;;;5.90;5.40;;;20.30;92.20;;;;;;5040278;28;20197;-81
2022/05/23 08:11:50;;;;;;;6.00;5.50;;;20.40;94.10;;;;;;5041701;28;20196;-80
2022/05/23 08:14:16;;;;;;;5.82;5.28;;;20.60;93.20;;;;;;5062443;28;20207;-80
2022/05/23 08:16:42;;;;;;;5.18;4.78;;;20.90;90.10;;;;;;5060126;28;20203;-81
2022/05/23 08:19:08;;;;;;;5.78;5.30;;;21.30;90.20;;;;;;5044964;28;20192;-82
2022/05/23 08:21:38;;;;;;;5.38;4.88;;;21.40;88.50;;;;;;5063194;28;20191;-82
2022/05/23 08:24:06;;;;;;;7.35;5.85;;;21.50;84.90;;;;;;5040580;28;20693;-84
2022/05/23 08:26:31;;;;;;;5.93;5.35;;;21.70;87.70;;;;;;5057283;28;20809;-82
2022/05/23 08:28:57;;;;;;;6.28;5.68;;;21.70;86.60;;;;;;5031878;28;20196;-81
2022/05/23 08:31:23;;;;;;;5.80;5.30;;;21.70;85.70;;;;;;5056411;28;20195;-81
2022/05/23 08:33:49;;;;;;;5.85;5.45;;;21.90;84.90;;;;;;5044621;28;20224;-81
2022/05/23 08:36:15;;;;;;;5.95;5.50;;;22.20;85.20;;;;;;5042868;28;20200;-82
2022/05/23 08:38:41;;;;;;;7.25;6.22;;;22.30;86.20;;;;;;5061959;28;20256;-82
2022/05/23 08:41:15;;;;;;;6.82;6.18;;;22.00;83.60;;;;;;5058201;28;20915;-81
2022/05/23 08:44:02;;;;;;;6.15;5.70;;;22.30;85.10;;;;;;5044313;28;20327;-81
2022/05/23 08:46:52;;;;;;;5.90;5.40;;;22.50;81.80;;;;;;5061387;28;20525;-82
2022/05/23 08:49:21;;;;;;;6.38;5.47;;;22.60;82.20;;;;;;5056143;28;20264;-81
2022/05/23 08:52:12;;;;;;;5.80;5.13;;;22.60;83.10;;;;;;5058437;28;20200;-82
2022/05/23 08:54:46;;;;;;;5.78;5.30;;;22.60;81.30;;;;;;5054219;28;20208;-82
2022/05/23 08:57:37;;;;;;;7.03;5.60;;;22.40;81.20;;;;;;5063930;28;20176;-81
2022/05/23 09:00:16;;;;;;;6.38;5.80;;;22.50;81.10;;;;;;5050529;28;20196;-82
2022/05/23 09:02:52;;;;;;;6.07;5.57;;;22.40;83.30;;;;;;5051983;28;20277;-81
2022/05/23 09:05:22;;;;;;;6.20;5.70;;;22.40;82.40;;;;;;5044308;28;20271;-81
2022/05/23 09:07:57;;;;;;;7.40;6.75;;;22.50;81.10;;;;;;5044899;28;20302;-82
2022/05/23 09:10:54;;;;;;;7.00;6.40;;;22.40;81.00;;;;;;5062205;28;20195;-82
2022/05/23 09:13:22;;;;;;;6.38;5.80;;;22.10;83.40;;;;;;5040019;28;20200;-82
2022/05/23 09:15:50;;;;;;;6.38;5.88;;;22.30;79.90;;;;;;5065111;28;20184;-82
2022/05/23 09:18:22;;;;;;;7.53;6.78;;;22.50;82.20;;;;;;5057347;28;20267;-82
2022/05/23 09:20:51;;;;;;;7.38;6.15;;;22.80;78.90;;;;;;5061634;28;20251;-82
2022/05/23 09:23:22;;;;;;;6.35;5.85;;;23.30;74.90;;;;;;5058561;28;20223;-82
2022/05/23 09:25:51;;;;;;;6.80;6.30;;;23.40;76.60;;;;;;5052056;28;20216;-81
2022/05/23 09:28:27;;;;;;;6.75;6.25;;;23.50;77.90;;;;;;5058301;28;20268;-82
2022/05/23 09:30:58;;;;;;;6.45;5.95;;;23.80;76.30;;;;;;5044679;28;20254;-82
2022/05/23 09:33:25;;;;;;;7.28;6.60;;;24.20;75.20;;;;;;5062171;28;20219;-82
2022/05/23 09:35:55;;;;;;;7.38;6.68;;;24.50;73.60;;;;;;5056399;28;20234;-82
2022/05/23 09:38:29;;;;;;;8.30;6.95;;;24.50;71.70;;;;;;5043210;28;20294;-82
2022/05/23 09:40:56;;;;;;;6.68;6.07;;;24.30;71.20;;;;;;5038306;28;20287;-81
2022/05/23 09:49:09;;;;;;;7.47;6.80;;;24.50;72.50;;;;;;5062097;28;20221;-82
2022/05/23 09:51:56;;;;;;;7.40;6.88;;;24.60;71.70;;;;;;5045923;28;20251;-82
2022/05/23 09:54:25;;;;;;;7.82;7.13;;;24.10;74.00;;;;;;5058298;28;20231;-81
2022/05/23 09:56:51;;;;;;;7.45;6.75;;;23.70;75.30;;;;;;5067961;28;20184;-82
2022/05/23 09:59:29;;;;;;;9.07;8.18;;;23.60;76.30;;;;;;5061441;28;20242;-82
2022/05/23 10:01:55;;;;;;;8.02;7.28;;;23.60;78.50;;;;;;5045465;28;20196;-81
2022/05/23 10:04:30;;;;;;;8.43;7.80;;;23.80;77.50;;;;;;5031519;28;20620;-82
2022/05/23 10:06:56;;;;;;;9.68;8.02;;;23.60;79.90;;;;;;5056469;28;20188;-81
2022/05/23 10:09:40;;;;;;;8.60;7.90;;;23.40;80.60;;;;;;5038573;28;20557;-82
2022/05/23 10:12:09;;;;;;;8.18;7.40;;;23.10;82.10;;;;;;5050601;28;20208;-81
2022/05/23 10:14:52;;;;;;;7.65;6.88;;;22.80;83.90;;;;;;5041047;28;20485;-82
2022/05/23 10:17:35;;;;;;;7.88;7.22;;;22.70;84.60;;;;;;5054897;28;20539;-81
2022/05/23 10:20:25;;;;;;;8.57;7.75;;;22.60;83.20;;;;;;5029505;28;20201;-81
2022/05/23 10:22:58;;;;;;;8.43;7.63;;;22.40;84.20;;;;;;5065506;28;20195;-80
2022/05/23 10:25:27;;;;;;;8.98;8.18;;;22.20;86.10;;;;;;5058307;28;20223;-82
2022/05/23 10:28:05;;;;;;;10.35;9.35;;;22.10;90.00;;;;;;5051261;28;20196;-81
2022/05/23 10:30:36;;;;;;;11.10;10.05;;;22.10;89.80;;;;;;5052355;28;20180;-82
2022/05/23 10:33:11;;;;;;;11.00;9.98;;;21.90;93.10;;;;;;5053010;28;20250;-82
2022/05/23 10:35:49;;;;;;;11.27;9.75;;;21.80;93.70;;;;;;5047418;28;20563;-81
2022/05/23 10:44:27;;;;;;;12.80;11.50;;;21.10;98.00;;;;;;5024726;28;20736;-81
2022/05/23 10:47:16;;;;;;;12.63;11.63;;;20.60;99.90;;;;;;5058102;28;20264;-82
2022/05/23 10:50:00;;;;;;;12.90;11.65;;;20.50;99.90;;;;;;5056487;28;20180;-82
2022/05/23 10:52:53;;;;;;;11.95;10.90;;;20.70;99.90;;;;;;5053624;28;20208;-82
2022/05/23 10:55:42;;;;;;;10.82;9.73;;;20.70;99.90;;;;;;5056543;28;20386;-83
2022/05/23 10:58:30;;;;;;;10.85;8.98;;;20.70;99.90;;;;;;5044721;28;20222;-82
2022/05/23 11:01:14;;;;;;;9.52;8.68;;;20.70;99.90;;;;;;5043364;28;20642;-83
2022/05/23 11:04:09;;;;;;;10.55;8.30;;;20.70;99.90;;;;;;5052724;28;20215;-82
2022/05/23 11:06:44;;;;;;;8.68;7.88;;;20.50;99.90;;;;;;5056539;28;20176;-82
2022/05/23 11:09:31;;;;;;;10.10;9.07;;;20.40;99.90;;;;;;5033184;28;20206;-82
2022/05/23 11:12:24;;;;;;;8.68;7.88;;;20.50;99.90;;;;;;5039463;28;20256;-83
2022/05/23 11:15:20;;;;;;;11.77;7.63;;;20.50;99.90;;;;;;5055930;28;20524;-83
2022/05/23 11:17:51;;;;;;;7.75;6.20;;;20.60;99.90;;;;;;5064240;28;20206;-83
2022/05/23 11:20:28;;;;;;;7.20;6.53;;;20.60;99.90;;;;;;5052400;28;20210;-82
2022/05/23 11:23:13;;;;;;;6.85;6.30;;;20.60;99.90;;;;;;5056062;28;20258;-83
2022/05/23 11:25:44;;;;;;;7.47;5.93;;;20.60;99.90;;;;;;5039075;28;20197;-82
2022/05/23 11:34:30;;;;;;;5.82;5.22;;;20.80;99.90;;;;;;5053117;28;20307;-82
2022/05/23 11:39:49;;;;;;;6.25;4.95;;;21.10;99.90;;;;;;5058562;28;20245;-82
2022/05/23 11:42:27;;;;;;;5.47;4.97;;;21.40;99.90;;;;;;5055353;28;20204;-83
2022/05/23 11:44:54;;;;;;;7.80;5.53;;;21.50;99.10;;;;;;5038453;28;20196;-83
2022/05/23 11:47:26;;;;;;;6.90;5.07;;;21.70;97.30;;;;;;5060372;28;20184;-82
2022/05/23 11:49:58;;;;;;;5.95;5.03;;;21.70;99.90;;;;;;5052719;28;20238;-81
2022/05/23 11:52:26;;;;;;;6.25;5.32;;;21.80;99.20;;;;;;5048756;28;20280;-82
2022/05/23 11:54:52;;;;;;;6.50;5.43;;;21.80;96.00;;;;;;5062770;28;20283;-83
2022/05/23 11:57:38;;;;;;;6.15;5.05;;;22.00;97.30;;;;;;5040922;28;20188;-83
2022/05/23 12:00:22;;;;;;;5.50;4.70;;;22.00;95.40;;;;;;5063686;28;20172;-83
2022/05/23 12:03:07;;;;;;;5.68;4.82;;;22.00;96.50;;;;;;5053302;28;20212;-83
2022/05/23 12:05:33;;;;;;;6.28;4.95;;;22.00;96.00;;;;;;5057012;28;20194;-83
2022/05/23 12:08:02;;;;;;;5.60;4.70;;;22.00;96.50;;;;;;5063819;28;20275;-83
2022/05/23 12:10:31;;;;;;;8.05;5.13;;;22.00;96.20;;;;;;5056446;28;20192;-83
2022/05/23 12:13:16;;;;;;;7.80;5.25;;;22.00;97.00;;;;;;5059731;28;20213;-83
2022/05/23 12:15:48;;;;;;;5.60;5.10;;;22.00;98.30;;;;;;5053567;28;20192;-83
2022/05/23 12:18:20;;;;;;;6.90;5.60;;;22.00;97.90;;;;;;5060958;28;20180;-83
2022/05/23 12:20:51;;;;;;;6.53;5.97;;;22.10;98.20;;;;;;5061421;28;20253;-83
2022/05/23 12:23:41;;;;;;;7.18;6.20;;;22.10;99.10;;;;;;5060856;28;20207;-83
2022/05/23 12:26:10;;;;;;;6.45;5.80;;;22.10;99.00;;;;;;5053715;28;20197;-83
2022/05/23 12:29:20;;;;;;;7.70;6.90;;;22.10;99.00;;;;;;5040964;28;20244;-83
2022/05/23 12:32:04;;;;;;;6.53;5.95;;;22.20;95.30;;;;;;5067045;28;20240;-83
2022/05/23 12:34:31;;;;;;;7.00;6.40;;;22.30;96.40;;;;;;5066505;28;20581;-82
2022/05/23 12:36:58;;;;;;;7.22;6.05;;;22.40;96.60;;;;;;5064106;28;20240;-83
2022/05/23 12:39:45;;;;;;;8.25;6.22;;;22.50;94.80;;;;;;5061718;28;20709;-83
2022/05/23 12:42:48;;;;;;;8.88;7.28;;;22.60;95.80;;;;;;5062998;28;20200;-82
2022/05/23 12:45:29;;;;;;;7.15;6.40;;;22.80;94.60;;;;;;5049669;28;20211;-83
2022/05/23 12:48:01;;;;;;;7.30;6.60;;;23.00;93.50;;;;;;5059759;28;20188;-82
2022/05/23 12:50:42;;;;;;;7.47;6.75;;;23.20;92.40;;;;;;5069849;28;20184;-83
2022/05/23 12:53:35;;;;;;;11.70;7.85;;;23.70;90.90;;;;;;5064606;28;20235;-83
2022/05/23 12:56:56;;;;;;;8.63;7.72;;;24.10;88.60;;;;;;5063014;28;20195;-83
2022/05/23 13:00:03;;;;;;;7.22;6.57;;;24.40;86.40;;;;;;4947626;29;20210;-83
2022/05/23 13:02:37;;;;;;;9.25;8.10;;;24.60;84.90;;;;;;5064637;28;20219;-83
2022/05/23 13:05:17;;;;;;;10.23;7.60;;;24.20;85.00;;;;;;5054407;28;20807;-83
2022/05/23 13:08:21;;;;;;;7.93;7.18;;;24.00;85.80;;;;;;5071279;28;20232;-82
2022/05/23 13:11:03;;;;;;;8.73;7.57;;;24.20;84.60;;;;;;5060222;28;20199;-82
2022/05/23 13:13:41;;;;;;;11.25;8.20;;;24.60;85.60;;;;;;5048586;28;20635;-82
2022/05/23 13:16:22;;;;;;;9.95;7.75;;;25.20;84.00;;;;;;5050823;28;20193;-82
2022/05/23 13:27:09;;;;;;;8.57;7.88;;;25.70;78.20;;;;;;5063111;28;20195;-84
2022/05/23 13:29:36;;;;;;;8.88;7.95;;;25.60;78.00;;;;;;5056724;28;20187;-82
2022/05/23 13:32:12;;;;;;;8.18;7.03;;;25.90;76.50;;;;;;5064996;28;20189;-82
2022/05/23 13:34:42;;;;;;;8.10;7.30;;;26.30;75.20;;;;;;5053574;28;20239;-82
2022/05/23 13:37:09;;;;;;;8.57;7.38;;;26.50;75.40;;;;;;5055183;28;20181;-83
2022/05/23 13:39:46;;;;;;;7.88;7.28;;;26.40;74.80;;;;;;5059794;28;20658;-82
2022/05/23 13:42:19;;;;;;;8.18;7.10;;;26.90;74.20;;;;;;5059480;28;20211;-82
2022/05/23 13:44:45;;;;;;;8.25;7.43;;;27.40;71.90;;;;;;5056132;28;20196;-82
2022/05/23 13:47:18;;;;;;;11.75;8.25;;;27.80;71.00;;;;;;5057012;28;20214;-82
2022/05/23 13:49:59;;;;;;;8.23;7.07;;;28.00;69.80;;;;;;5058383;28;20248;-83
2022/05/23 13:52:34;;;;;;;8.02;6.90;;;28.40;67.50;;;;;;5058351;28;20200;-84
2022/05/23 13:55:28;;;;;;;8.35;7.55;;;28.10;66.30;;;;;;5060760;28;20199;-82
2022/05/23 13:58:03;;;;;;;7.55;6.85;;;27.70;68.20;;;;;;5025011;28;20254;-83
2022/05/23 14:00:43;;;;;;;9.75;6.35;;;27.60;69.40;;;;;;5041118;28;20188;-82
2022/05/23 14:03:34;;;;;;;7.93;6.00;;;28.20;65.10;;;;;;5061466;28;20227;-81
2022/05/23 14:06:02;;;;;;;7.88;5.82;;;28.30;64.10;;;;;;5056591;28;20192;-83
2022/05/23 14:08:38;;;;;;;6.13;5.53;;;28.60;60.40;;;;;;5048162;28;20196;-82
2022/05/23 14:11:09;;;;;;;8.90;6.25;;;28.30;59.50;;;;;;5057778;28;20203;-82
2022/05/23 14:13:35;;;;;;;7.00;5.72;;;28.20;61.00;;;;;;5035144;28;20235;-83
2022/05/23 14:16:03;;;;;;;7.32;5.65;;;28.00;58.90;;;;;;5063068;28;20202;-83
2022/05/23 14:18:32;;;;;;;6.55;5.07;;;28.40;59.20;;;;;;5063786;28;20184;-82